createdAt,value
2018-05-02T00:02:15.131Z,8.00
2018-05-02T00:04:41.876Z,7.90
2018-05-02T00:07:07.856Z,7.80
2018-05-02T00:09:33.812Z,8.30
2018-05-02T00:11:59.804Z,8.60
2018-05-02T00:14:26.513Z,8.00
2018-05-02T00:16:52.496Z,8.00
2018-05-02T00:19:19.241Z,7.80
2018-05-02T00:21:45.944Z,7.80
2018-05-02T00:24:11.926Z,7.80
2018-05-02T00:26:37.881Z,7.80
2018-05-02T00:29:04.576Z,7.90
2018-05-02T00:31:30.556Z,7.90
2018-05-02T00:33:56.559Z,8.00
2018-05-02T00:36:22.529Z,8.20
2018-05-02T00:38:49.223Z,8.10
2018-05-02T00:41:15.212Z,8.10
2018-05-02T00:43:41.164Z,7.80
2018-05-02T00:46:07.885Z,8.20
2018-05-02T00:48:33.876Z,8.20
2018-05-02T00:50:59.910Z,8.50
2018-05-02T00:53:25.895Z,8.60
2018-05-02T00:55:52.648Z,7.80
2018-05-02T00:58:18.606Z,7.80
2018-05-02T01:00:45.341Z,7.50
2018-05-02T01:03:11.297Z,7.50
2018-05-02T01:05:38.028Z,7.60
2018-05-02T01:08:03.992Z,7.50
2018-05-02T01:10:30.684Z,7.40
2018-05-02T01:12:56.676Z,7.40
2018-05-02T01:15:23.398Z,7.50
2018-05-02T01:17:49.391Z,7.50
2018-05-02T01:20:15.355Z,7.50
2018-05-02T01:22:41.351Z,7.50
2018-05-02T01:25:07.335Z,7.50
2018-05-02T01:27:33.329Z,7.40
2018-05-02T01:29:59.332Z,7.30
2018-05-02T01:32:25.339Z,7.40
2018-05-02T01:34:51.309Z,7.40
2018-05-02T01:37:18.080Z,7.40
2018-05-02T01:39:44.811Z,7.20
2018-05-02T01:42:10.762Z,7.20
2018-05-02T01:44:37.463Z,7.20
2018-05-02T01:47:03.459Z,7.20
2018-05-02T01:49:30.180Z,7.20
2018-05-02T01:51:56.171Z,7.10
2018-05-02T01:54:22.115Z,7.10
2018-05-02T01:56:48.093Z,7.00
2018-05-02T01:59:14.162Z,7.00
2018-05-02T02:01:40.154Z,7.00
2018-05-02T02:04:06.102Z,6.90
2018-05-02T02:06:32.080Z,6.90
2018-05-02T02:08:58.069Z,7.00
2018-05-02T02:11:24.795Z,6.90
2018-05-02T02:13:50.791Z,6.90
2018-05-02T02:16:17.495Z,6.90
2018-05-02T02:18:43.495Z,6.90
2018-05-02T02:21:09.475Z,7.10
2018-05-02T02:23:35.468Z,7.30
2018-05-02T02:26:01.428Z,7.20
2018-05-02T02:28:27.405Z,7.20
2018-05-02T02:30:53.439Z,7.20
2018-05-02T02:33:19.402Z,7.10
2018-05-02T02:35:45.431Z,7.40
2018-05-02T02:38:12.128Z,7.30
2018-05-02T02:40:38.119Z,7.20
2018-05-02T02:43:04.806Z,7.50
2018-05-02T02:45:30.759Z,7.40
2018-05-02T02:47:56.789Z,7.50
2018-05-02T02:50:22.737Z,7.60
2018-05-02T02:52:48.688Z,7.90
2018-05-02T02:55:14.686Z,7.80
2018-05-02T02:57:40.654Z,7.80
2018-05-02T03:00:06.647Z,7.90
2018-05-02T03:02:32.604Z,8.10
2018-05-02T03:04:58.598Z,8.20
2018-05-02T03:07:25.324Z,8.40
2018-05-02T03:09:51.275Z,8.40
2018-05-02T03:12:17.996Z,7.90
2018-05-02T03:14:43.991Z,7.90
2018-05-02T03:17:09.950Z,8.10
2018-05-02T03:19:35.935Z,8.00
2018-05-02T03:22:02.623Z,8.30
2018-05-02T03:24:28.576Z,8.30
2018-05-02T03:26:54.559Z,8.30
2018-05-02T03:29:21.271Z,8.60
2018-05-02T03:31:47.274Z,8.50
2018-05-02T03:34:13.259Z,8.80
2018-05-02T03:36:39.223Z,8.60
2018-05-02T03:39:05.981Z,8.40
2018-05-02T03:41:32.681Z,8.30
2018-05-02T03:43:58.670Z,8.30
2018-05-02T03:46:25.370Z,8.10
2018-05-02T03:48:51.340Z,8.10
2018-05-02T03:51:18.200Z,8.00
2018-05-02T03:53:44.179Z,8.20
2018-05-02T03:56:10.165Z,8.30
2018-05-02T03:58:36.187Z,8.40
2018-05-02T04:01:14.435Z,8.50
2018-05-02T04:03:53.722Z,8.30
2018-05-02T04:06:25.883Z,8.30
2018-05-02T04:08:52.646Z,8.60
2018-05-02T04:11:18.602Z,8.60
2018-05-02T04:13:44.554Z,8.50
2018-05-02T04:16:10.548Z,8.80
2018-05-02T04:18:37.300Z,8.80
2018-05-02T04:21:03.231Z,8.80
2018-05-02T04:23:29.966Z,8.60
2018-05-02T04:25:55.912Z,8.60
2018-05-02T04:28:22.612Z,8.50
2018-05-02T04:30:48.659Z,8.40
2018-05-02T04:33:14.609Z,8.60
2018-05-02T04:35:40.560Z,8.70
2018-05-02T04:38:08.039Z,8.60
2018-05-02T04:40:33.997Z,8.60
2018-05-02T04:42:59.970Z,8.70
2018-05-02T04:45:25.918Z,9.00
2018-05-02T04:47:51.897Z,8.80
2018-05-02T04:50:18.631Z,8.80
2018-05-02T04:52:44.711Z,8.80
2018-05-02T04:55:10.617Z,8.70
2018-05-02T04:57:37.355Z,8.70
2018-05-02T05:00:03.302Z,8.70
2018-05-02T05:02:30.030Z,9.20
2018-05-02T05:04:56.040Z,9.20
2018-05-02T05:07:21.995Z,9.50
2018-05-02T05:09:47.977Z,9.60
2018-05-02T05:12:14.038Z,9.40
2018-05-02T05:14:39.934Z,9.00
2018-05-02T05:17:06.662Z,9.10
2018-05-02T05:19:32.615Z,9.10
2018-05-02T05:21:58.575Z,9.30
2018-05-02T05:24:24.563Z,9.30
2018-05-02T05:26:50.517Z,9.40
2018-05-02T05:29:16.503Z,9.60
2018-05-02T05:31:42.475Z,9.60
2018-05-02T05:34:09.203Z,9.50
2018-05-02T05:36:35.183Z,9.50
2018-05-02T05:39:01.891Z,10.00
2018-05-02T05:41:27.946Z,10.00
2018-05-02T05:43:53.940Z,10.10
2018-05-02T05:46:19.887Z,10.00
2018-05-02T05:48:45.834Z,10.10
2018-05-02T05:51:11.887Z,10.00
2018-05-02T05:53:38.669Z,10.60
2018-05-02T05:56:05.415Z,10.40
2018-05-02T05:58:31.389Z,10.40
2018-05-02T06:00:57.371Z,10.50
2018-05-02T06:03:23.324Z,10.40
2018-05-02T06:05:50.062Z,10.40
2018-05-02T06:08:16.051Z,10.40
2018-05-02T06:10:42.051Z,10.40
2018-05-02T06:13:08.000Z,10.60
2018-05-02T06:15:34.710Z,10.40
2018-05-02T06:18:00.708Z,10.30
2018-05-02T06:20:26.693Z,10.50
2018-05-02T06:22:52.703Z,10.60
2018-05-02T06:25:18.672Z,10.80
2018-05-02T06:27:44.700Z,10.60
2018-05-02T06:30:10.750Z,10.10
2018-05-02T06:32:36.732Z,10.20
2018-05-02T06:35:02.739Z,10.00
2018-05-02T06:37:28.747Z,10.00
2018-05-02T06:39:55.486Z,10.20
2018-05-02T06:42:22.223Z,10.10
2018-05-02T06:44:48.267Z,10.10
2018-05-02T06:47:14.279Z,10.20
2018-05-02T06:49:40.283Z,10.40
2018-05-02T06:52:06.253Z,10.40
2018-05-02T06:54:32.215Z,10.70
2018-05-02T06:56:58.947Z,10.70
2018-05-02T06:59:24.915Z,10.60
2018-05-02T07:01:52.455Z,10.50
2018-05-02T07:04:18.425Z,10.50
2018-05-02T07:06:45.164Z,10.30
2018-05-02T07:09:11.167Z,10.30
2018-05-02T07:11:37.159Z,10.30
2018-05-02T07:14:03.873Z,10.10
2018-05-02T07:16:29.859Z,10.20
2018-05-02T07:18:55.847Z,10.00
2018-05-02T07:21:21.849Z,10.50
2018-05-02T07:23:47.810Z,10.60
2018-05-02T07:26:13.810Z,10.50
2018-05-02T07:28:39.795Z,10.10
2018-05-02T07:31:05.739Z,9.90
2018-05-02T07:33:31.787Z,10.10
2018-05-02T07:35:58.531Z,10.80
2018-05-02T07:38:25.276Z,11.10
2018-05-02T07:40:51.260Z,11.00
2018-05-02T07:43:17.270Z,11.40
2018-05-02T07:45:43.300Z,11.20
2018-05-02T07:48:09.327Z,11.20
2018-05-02T07:50:35.324Z,11.30
2018-05-02T07:53:01.393Z,11.50
2018-05-02T07:55:27.409Z,11.70
2018-05-02T07:57:53.412Z,11.70
2018-05-02T08:00:20.152Z,11.30
2018-05-02T08:02:46.209Z,11.30
2018-05-02T08:05:12.936Z,10.90
2018-05-02T08:07:38.941Z,10.90
2018-05-02T08:10:04.908Z,11.30
2018-05-02T08:12:30.927Z,11.40
2018-05-02T08:14:56.927Z,11.60
2018-05-02T08:17:22.962Z,11.60
2018-05-02T08:19:48.927Z,12.20
2018-05-02T08:22:14.882Z,12.60
2018-05-02T08:24:40.882Z,12.00
2018-05-02T08:27:06.899Z,11.80
2018-05-02T08:29:32.883Z,12.30
2018-05-02T08:31:58.889Z,12.70
2018-05-02T08:34:24.875Z,13.10
2018-05-02T08:36:51.615Z,14.00
2018-05-02T08:39:17.619Z,14.00
2018-05-02T08:41:50.518Z,13.80
2018-05-02T08:44:16.494Z,14.30
2018-05-02T08:46:43.212Z,12.90
2018-05-02T08:49:09.203Z,12.90
2018-05-02T08:51:35.953Z,12.70
2018-05-02T08:54:02.697Z,12.80
2018-05-02T08:56:28.675Z,12.80
2018-05-02T08:58:54.699Z,13.10
2018-05-02T09:01:20.698Z,13.50
2018-05-02T09:03:46.712Z,13.40
2018-05-02T09:06:12.708Z,13.20
2018-05-02T09:08:38.710Z,13.50
2018-05-02T09:11:05.443Z,13.60
2018-05-02T09:13:31.464Z,13.50
2018-05-02T09:15:57.433Z,14.10
2018-05-02T09:18:23.428Z,13.90
2018-05-02T09:20:49.436Z,14.20
2018-05-02T09:23:15.423Z,14.00
2018-05-02T09:25:41.496Z,14.00
2018-05-02T09:28:07.410Z,14.20
2018-05-02T09:30:33.435Z,14.70
2018-05-02T09:32:59.395Z,14.50
2018-05-02T09:35:25.410Z,14.40
2018-05-02T09:37:51.391Z,14.60
2018-05-02T09:40:17.343Z,15.10
2018-05-02T09:42:43.346Z,15.20
2018-05-02T09:45:10.029Z,14.90
2018-05-02T09:47:36.010Z,14.90
2018-05-02T09:50:02.002Z,15.20
2018-05-02T09:52:27.968Z,15.30
2018-05-02T09:54:53.987Z,15.10
2018-05-02T09:57:19.987Z,15.30
2018-05-02T09:59:46.716Z,15.70
2018-05-02T10:02:12.687Z,15.70
2018-05-02T10:04:38.671Z,16.10
2018-05-02T10:07:04.654Z,16.60
2018-05-02T10:09:31.388Z,16.60
2018-05-02T10:11:57.363Z,16.50
2018-05-02T10:14:23.373Z,16.70
2018-05-02T10:16:50.071Z,17.50
2018-05-02T10:19:16.083Z,17.50
2018-05-02T10:21:42.076Z,17.60
2018-05-02T10:24:08.061Z,17.30
2018-05-02T10:26:34.074Z,16.90
2018-05-02T10:29:00.778Z,17.60
2018-05-02T10:31:26.774Z,17.60
2018-05-02T10:33:52.784Z,17.90
2018-05-02T10:36:19.539Z,18.40
2018-05-02T10:38:45.527Z,18.30
2018-05-02T10:41:11.529Z,18.30
2018-05-02T10:43:38.234Z,18.40
2018-05-02T10:46:04.251Z,18.40
2018-05-02T10:48:30.232Z,18.60
2018-05-02T10:50:56.229Z,18.50
2018-05-02T10:53:22.263Z,18.70
2018-05-02T10:55:48.332Z,18.90
2018-05-02T10:58:14.255Z,18.50
2018-05-02T11:00:40.205Z,18.70
2018-05-02T11:03:06.210Z,18.80
2018-05-02T11:05:32.243Z,19.40
2018-05-02T11:07:58.211Z,19.80
2018-05-02T11:10:24.274Z,19.70
2018-05-02T11:12:50.995Z,20.30
2018-05-02T11:15:16.946Z,20.30
2018-05-02T11:17:42.928Z,20.60
2018-05-02T11:20:08.891Z,20.80
2018-05-02T11:22:34.887Z,21.10
2018-05-02T11:25:01.595Z,20.70
2018-05-02T11:27:27.595Z,20.70
2018-05-02T11:29:53.642Z,20.80
2018-05-02T11:32:19.678Z,20.70
2018-05-02T11:34:45.664Z,20.70
2018-05-02T11:37:11.623Z,20.60
2018-05-02T11:39:38.411Z,21.00
2018-05-02T11:42:04.387Z,21.00
2018-05-02T11:44:30.392Z,21.20
2018-05-02T11:46:56.383Z,20.80
2018-05-02T11:49:23.178Z,20.90
2018-05-02T11:51:49.145Z,20.80
2018-05-02T11:54:15.214Z,20.70
2018-05-02T11:56:41.148Z,20.80
2018-05-02T11:59:07.884Z,20.80
2018-05-02T12:01:33.902Z,20.80
2018-05-02T12:03:59.874Z,20.50
2018-05-02T12:06:26.647Z,20.80
2018-05-02T12:08:52.684Z,20.70
2018-05-02T12:11:18.644Z,20.70
2018-05-02T12:13:44.627Z,21.00
2018-05-02T12:16:11.378Z,22.00
2018-05-02T12:18:37.399Z,22.00
2018-05-02T12:21:03.379Z,21.90
2018-05-02T12:23:29.367Z,22.20
2018-05-02T12:25:55.380Z,22.70
2018-05-02T12:28:21.413Z,22.50
2018-05-02T12:30:47.398Z,22.50
2018-05-02T12:33:13.375Z,22.40
2018-05-02T12:35:39.395Z,22.00
2018-05-02T12:38:05.347Z,22.70
2018-05-02T12:40:31.331Z,23.10
2018-05-02T12:42:57.339Z,22.90
2018-05-02T12:45:23.363Z,22.30
2018-05-02T12:47:49.317Z,22.20
2018-05-02T12:50:15.312Z,22.40
2018-05-02T12:52:41.339Z,23.10
2018-05-02T12:55:08.066Z,22.60
2018-05-02T12:57:34.771Z,22.20
2018-05-02T13:00:00.747Z,22.20
2018-05-02T13:02:26.817Z,22.60
2018-05-02T13:04:52.767Z,24.00
2018-05-02T13:07:18.723Z,26.20
2018-05-02T13:09:44.690Z,26.50
2018-05-02T13:12:10.680Z,27.40
2018-05-02T13:14:36.639Z,28.70
2018-05-02T13:17:02.652Z,29.60
2018-05-02T13:19:28.644Z,29.60
2018-05-02T13:21:54.640Z,26.60
2018-05-02T13:24:20.635Z,24.90
2018-05-02T13:26:47.407Z,22.70
2018-05-02T13:29:13.374Z,22.70
2018-05-02T13:31:39.354Z,22.60
2018-05-02T13:34:05.309Z,22.90
2018-05-02T13:36:32.051Z,25.80
2018-05-02T13:38:58.767Z,26.70
2018-05-02T13:41:24.811Z,26.70
2018-05-02T13:43:50.811Z,27.00
2018-05-02T13:46:16.807Z,27.80
2018-05-02T13:48:42.908Z,26.00
2018-05-02T13:51:08.871Z,25.90
2018-05-02T13:53:34.845Z,27.30
2018-05-02T13:56:00.840Z,27.30
2018-05-02T13:58:26.863Z,26.30
2018-05-02T14:00:52.897Z,24.30
2018-05-02T14:03:18.845Z,24.00
2018-05-02T14:05:44.795Z,23.50
2018-05-02T14:08:10.846Z,23.80
2018-05-02T14:10:36.791Z,22.20
2018-05-02T14:13:03.502Z,22.00
2018-05-02T14:15:29.518Z,22.00
2018-05-02T14:17:55.518Z,21.50
2018-05-02T14:20:22.272Z,20.90
2018-05-02T14:22:48.974Z,21.10
2018-05-02T14:25:14.934Z,21.10
2018-05-02T14:27:40.967Z,22.00
2018-05-02T14:30:06.954Z,21.80
2018-05-02T14:32:32.951Z,21.60
2018-05-02T14:34:58.914Z,22.30
2018-05-02T14:37:25.001Z,22.90
2018-05-02T14:39:50.948Z,23.50
2018-05-02T14:42:16.910Z,24.80
2018-05-02T14:44:43.627Z,25.40
2018-05-02T14:47:09.634Z,25.30
2018-05-02T14:49:35.623Z,25.30
2018-05-02T14:52:02.363Z,24.50
2018-05-02T14:54:28.395Z,24.40
2018-05-02T14:56:54.388Z,23.70
2018-05-02T14:59:20.388Z,23.80
2018-05-02T15:01:46.347Z,23.90
2018-05-02T15:04:12.355Z,24.40
2018-05-02T15:06:38.306Z,22.70
2018-05-02T15:09:05.067Z,21.50
2018-05-02T15:11:31.827Z,21.50
2018-05-02T15:13:58.507Z,22.20
2018-05-02T15:16:24.545Z,22.20
2018-05-02T15:18:50.662Z,21.80
2018-05-02T15:21:16.631Z,21.50
2018-05-02T15:23:42.635Z,21.60
2018-05-02T15:26:08.608Z,21.50
2018-05-02T15:28:34.581Z,21.60
2018-05-02T15:31:01.339Z,21.50
2018-05-02T15:33:28.029Z,21.20
2018-05-02T15:35:54.022Z,21.10
2018-05-02T15:38:20.795Z,21.60
2018-05-02T15:40:47.503Z,21.50
2018-05-02T15:43:13.451Z,21.40
2018-05-02T15:45:39.496Z,21.30
2018-05-02T15:48:05.501Z,21.20
2018-05-02T15:50:31.520Z,21.50
2018-05-02T15:52:57.480Z,20.80
2018-05-02T15:55:23.527Z,20.90
2018-05-02T15:57:49.487Z,21.00
2018-05-02T16:00:16.226Z,21.30
2018-05-02T16:02:42.191Z,21.20
2018-05-02T16:05:08.934Z,21.40
2018-05-02T16:07:35.668Z,21.30
2018-05-02T16:10:01.721Z,21.40
2018-05-02T16:12:27.619Z,21.30
2018-05-02T16:14:53.612Z,21.00
2018-05-02T16:17:20.411Z,21.20
2018-05-02T16:19:46.459Z,21.20
2018-05-02T16:22:12.487Z,20.90
2018-05-02T16:24:39.191Z,20.60
2018-05-02T16:27:05.923Z,20.70
2018-05-02T16:29:31.907Z,20.70
2018-05-02T16:31:57.926Z,20.70
2018-05-02T16:34:23.883Z,20.60
2018-05-02T16:36:49.920Z,20.60
2018-05-02T16:39:15.883Z,20.60
2018-05-02T16:41:41.875Z,20.60
2018-05-02T16:44:07.918Z,20.60
2018-05-02T16:46:33.915Z,20.50
2018-05-02T16:49:00.647Z,20.40
2018-05-02T16:51:26.614Z,20.40
2018-05-02T16:53:52.636Z,20.60
2018-05-02T16:56:18.608Z,20.70
2018-05-02T16:58:44.570Z,20.30
2018-05-02T17:01:10.559Z,19.80
2018-05-02T17:03:36.527Z,19.70
2018-05-02T17:06:02.518Z,19.90
2018-05-02T17:08:28.531Z,19.90
2018-05-02T17:10:54.535Z,19.80
2018-05-02T17:13:20.602Z,19.70
2018-05-02T17:15:46.551Z,19.60
2018-05-02T17:18:12.494Z,19.30
2018-05-02T17:20:38.497Z,19.20
2018-05-02T17:23:04.450Z,18.80
2018-05-02T17:25:30.431Z,18.70
2018-05-02T17:27:56.387Z,18.80
2018-05-02T17:30:23.166Z,18.90
2018-05-02T17:32:49.149Z,18.90
2018-05-02T17:35:15.844Z,19.00
2018-05-02T17:37:41.866Z,19.00
2018-05-02T17:40:07.895Z,18.90
2018-05-02T17:42:34.625Z,18.80
2018-05-02T17:45:00.578Z,18.80
2018-05-02T17:47:27.299Z,18.80
2018-05-02T17:49:53.291Z,18.80
2018-05-02T17:52:19.268Z,18.80
2018-05-02T17:54:45.251Z,18.60
2018-05-02T17:57:11.191Z,18.20
2018-05-02T17:59:37.211Z,18.00
2018-05-02T18:02:03.939Z,18.00
2018-05-02T18:04:29.930Z,17.90
2018-05-02T18:06:55.896Z,18.20
2018-05-02T18:09:21.927Z,17.90
2018-05-02T18:11:47.915Z,17.80
2018-05-02T18:14:14.622Z,17.80
2018-05-02T18:16:40.587Z,17.80
2018-05-02T18:19:07.323Z,17.60
2018-05-02T18:21:33.299Z,17.60
2018-05-02T18:23:59.291Z,17.60
2018-05-02T18:26:25.307Z,17.50
2018-05-02T18:28:51.333Z,17.50
2018-05-02T18:31:17.298Z,17.50
2018-05-02T18:33:43.291Z,17.40
2018-05-02T18:36:09.320Z,17.30
2018-05-02T18:38:35.311Z,17.20
2018-05-02T18:41:01.335Z,17.20
2018-05-02T18:43:27.345Z,17.20
2018-05-02T18:45:53.440Z,17.30
2018-05-02T18:48:19.600Z,17.20
2018-05-02T18:50:46.383Z,17.40
2018-05-02T18:53:12.417Z,17.40
2018-05-02T18:55:38.311Z,17.50
2018-05-02T18:58:05.051Z,17.40
2018-05-02T19:00:31.031Z,17.30
2018-05-02T19:02:57.043Z,17.40
2018-05-02T19:05:23.757Z,17.20
2018-05-02T19:07:49.830Z,17.20
2018-05-02T19:10:16.544Z,17.50
2018-05-02T19:12:42.556Z,17.40
2018-05-02T19:15:08.542Z,17.20
2018-05-02T19:17:34.549Z,17.10
2018-05-02T19:20:18.339Z,16.70
2018-05-02T19:22:44.373Z,16.70
2018-05-02T19:25:16.387Z,17.00
2018-05-02T19:27:42.339Z,16.90
2018-05-02T19:30:08.331Z,16.70
2018-05-02T19:32:40.490Z,16.80
2018-05-02T19:35:06.542Z,16.90
2018-05-02T19:37:32.511Z,16.80
2018-05-02T19:40:04.583Z,16.70
2018-05-02T19:42:37.523Z,16.30
2018-05-02T19:45:05.481Z,16.40
2018-05-02T19:47:32.211Z,16.20
2018-05-02T19:49:58.931Z,16.20
2018-05-02T19:52:31.173Z,16.20
2018-05-02T19:54:57.143Z,16.40
2018-05-02T19:57:23.121Z,16.20
2018-05-02T19:59:49.907Z,16.20
2018-05-02T20:02:22.066Z,16.20
2018-05-02T20:04:48.088Z,16.50
2018-05-02T20:07:20.947Z,15.90
2018-05-02T20:09:53.014Z,15.90
2018-05-02T20:12:25.158Z,15.90
2018-05-02T20:14:51.916Z,15.50
2018-05-02T20:17:17.904Z,15.50
2018-05-02T20:19:43.861Z,15.60
2018-05-02T20:22:09.867Z,15.70
2018-05-02T20:24:35.831Z,16.00
2018-05-02T20:27:01.852Z,15.90
2018-05-02T20:29:27.836Z,15.60
2018-05-02T20:31:53.815Z,15.10
2018-05-02T20:34:19.846Z,14.90
2018-05-02T20:36:45.830Z,14.90
2018-05-02T20:39:12.524Z,15.00
2018-05-02T20:41:38.522Z,15.00
2018-05-02T20:44:05.234Z,15.30
2018-05-02T20:46:31.273Z,15.30
2018-05-02T20:48:57.948Z,15.20
2018-05-02T20:51:24.009Z,15.20
2018-05-02T20:53:50.790Z,15.10
2018-05-02T20:56:16.743Z,15.10
2018-05-02T20:58:42.755Z,15.10
2018-05-02T21:01:08.762Z,14.70
2018-05-02T21:03:35.510Z,14.70
2018-05-02T21:06:02.196Z,14.50
2018-05-02T21:08:28.159Z,14.40
2018-05-02T21:10:54.164Z,14.30
2018-05-02T21:13:20.907Z,14.30
2018-05-02T21:15:46.916Z,14.30
2018-05-02T21:18:12.862Z,13.90
2018-05-02T21:20:39.603Z,13.40
2018-05-02T21:23:05.651Z,13.40
2018-05-02T21:25:31.683Z,13.50
2018-05-02T21:27:58.434Z,13.60
2018-05-02T21:30:24.433Z,13.60
2018-05-02T21:32:50.441Z,13.60
2018-05-02T21:35:16.395Z,13.50
2018-05-02T21:37:42.402Z,13.40
2018-05-02T21:40:09.191Z,13.50
2018-05-02T21:42:35.134Z,13.50
2018-05-02T21:45:01.121Z,13.50
2018-05-02T21:47:27.870Z,13.80
2018-05-02T21:49:53.860Z,13.80
2018-05-02T21:52:19.877Z,13.80
2018-05-02T21:54:45.851Z,13.80
2018-05-02T21:57:12.562Z,13.80
2018-05-02T21:59:38.531Z,13.80
2018-05-02T22:02:04.514Z,13.80
2018-05-02T22:04:31.243Z,13.40
2018-05-02T22:06:57.246Z,13.40
2018-05-02T22:09:23.360Z,13.20
2018-05-02T22:11:49.433Z,13.10
2018-05-02T22:14:15.391Z,13.20
2018-05-02T22:16:41.340Z,13.10
2018-05-02T22:19:08.127Z,12.70
2018-05-02T22:21:34.102Z,12.70
2018-05-02T22:24:00.095Z,12.40
2018-05-02T22:26:26.074Z,12.30
2018-05-02T22:28:52.135Z,12.50
2018-05-02T22:31:18.154Z,12.70
2018-05-02T22:33:44.132Z,12.60
2018-05-02T22:36:10.147Z,12.70
2018-05-02T22:38:36.137Z,12.70
2018-05-02T22:41:02.163Z,12.80
2018-05-02T22:43:28.163Z,12.70
2018-05-02T22:45:54.962Z,12.80
2018-05-02T22:48:21.109Z,12.80
2018-05-02T22:50:47.100Z,12.90
2018-05-02T22:53:13.840Z,12.60
2018-05-02T22:55:40.563Z,12.50
2018-05-02T22:58:07.339Z,12.70
2018-05-02T23:00:33.324Z,12.60
2018-05-02T23:02:59.330Z,12.90
2018-05-02T23:05:26.029Z,13.10
2018-05-02T23:07:52.033Z,13.10
2018-05-02T23:10:18.834Z,12.60
2018-05-02T23:12:44.799Z,12.50
2018-05-02T23:15:10.753Z,12.50
2018-05-02T23:17:37.489Z,12.20
2018-05-02T23:20:03.497Z,12.20
2018-05-02T23:22:29.515Z,12.30
2018-05-02T23:24:55.495Z,12.30
2018-05-02T23:27:21.484Z,12.50
2018-05-02T23:29:47.493Z,12.60
2018-05-02T23:32:14.196Z,12.60
2018-05-02T23:34:40.197Z,12.60
2018-05-02T23:37:06.154Z,12.70
2018-05-02T23:39:32.196Z,12.60
2018-05-02T23:41:58.187Z,12.70
2018-05-02T23:44:24.175Z,12.80
2018-05-02T23:46:50.188Z,12.90
2018-05-02T23:49:16.171Z,12.90
2018-05-02T23:51:42.147Z,13.00
2018-05-02T23:54:08.156Z,12.80
2018-05-02T23:56:34.123Z,13.10
2018-05-02T23:59:00.131Z,12.80
